Nuiqsut Airport
PAQT : now visible

Aeroporto :











RITROVATECI SU...

 
LOGIN :

Iscrizione | Disclaimer

   EN    FR    IT 

 









Sommario :    VFR   VFR Marginale   IFR   IFR Intensivo   IFR Molto Intensivo
Visibilità : 
Base nubi : 
>= 8 km
>= 3000ft
5 / 8 km
1000 / 3000 ft
1500m / 5 km
500 / 1000 ft
800 / 1500m
200 / 500 ft
< 800m
< 200 ft
Simboli :   Temporali  Nebbia  Neve Forte  Precipitazioni Forti  Vento > 20 kt






- Altitudine del aeroporto : 38 ft
- Codice IATA : AQT


PAQT - Nuiqsut

ULTIMO METAR :
  • 011953Z AUTO 07021G28KT 10SM CLR 02/M02 A2988 RMK PK WND 06030/1855 SLP118 T00171022 TSNO VIA AUTODIAL

METARs OBSOLETI :
  • 011853Z AUTO 06021G29KT 10SM FEW014 01/M02 A2988 RMK PK WND 07031/1823 SLP118 T00111022 TSNO VIA AUTODIAL
  • 011753Z AUTO 07022G30KT 10SM CLR 01/M03 A2988 RMK PK WND 06030/1711 SLP118 T00061028 10006 21017 53000 TSNO VIA AUTODIAL

TAF PAQT
Valido dal 01 a 18 ore il 02 a 18 ore UTC


011740Z 0118/0218 06023G33KT P6SM OVC010
TEMPO 0118/0121 SCT010
FIR PAZA / America del Nord



MetMap, La meteo Aeronautica in un colpo d'occhio ! - Copyright ORBIFLY Dicembre 2007 - Disclaimer

ORBIFLY MET'MAP TEAM :

Programmazione e sviluppo : Alexandra Zaïnal
Concezione : Baudouin d'Aumeries
Aiuto per la programmazione : Marc-Olivier Méhu
Supporto tecnico e logistico : Manuel Goepfert
Aiuto per la traduzione : Arnaldo La Scala

Contatto : metmap@orbifly.com




FONTI E CREDITI :

   NOAA       Earth
Advisory